Time;durP1;ratioP1;P1;durP2;ratioP2;P2;SDS_P1;SDS_P2;PMS_P1;PMS_P2;Temp;Humidity;BMP_temperature;BMP_pressure;BME280_temperature;BME280_humidity;BME280_pressure;Samples;Min_cycle;Max_cycle;Signal;HPM_P1;HPM_P2
2021/05/26 00:01:27;;;;;;;4.45;1.10;;;;;;;18.11;38.49;101104.38;4174052;28;20048;-44
2021/05/26 00:03:27;;;;;;;4.07;1.50;;;;;;;17.98;38.96;101108.47;4174226;28;20871;-45
2021/05/26 00:05:29;;;;;;;3.13;1.20;;;;;;;18.30;38.33;101092.84;4151971;28;20034;-44
2021/05/26 00:07:30;;;;;;;3.58;1.08;;;;;;;18.44;37.94;101088.50;4172370;28;20479;-43
2021/05/26 00:09:30;;;;;;;3.92;1.10;;;;;;;18.39;38.07;101094.03;4174787;28;20033;-45
2021/05/26 00:11:30;;;;;;;2.03;1.13;;;;;;;18.37;38.30;101095.38;4174718;28;20037;-42
2021/05/26 00:13:31;;;;;;;4.07;1.38;;;;;;;18.28;38.31;101087.56;4174973;28;20029;-44
2021/05/26 00:15:32;;;;;;;2.70;1.35;;;;;;;18.32;38.13;101099.81;4174975;28;20502;-43
2021/05/26 00:17:32;;;;;;;2.00;0.80;;;;;;;18.45;37.99;101090.19;4174478;28;20037;-42
2021/05/26 00:19:33;;;;;;;3.67;1.20;;;;;;;18.40;38.03;101090.16;4173103;28;20037;-43
2021/05/26 00:21:35;;;;;;;6.85;1.35;;;;;;;18.23;38.24;101067.31;4174687;28;21980;-43
2021/05/26 00:23:39;;;;;;;4.93;1.98;;;;;;;18.39;38.16;101082.13;4173973;28;20044;-43
2021/05/26 00:25:40;;;;;;;2.78;1.27;;;;;;;18.15;38.73;101088.91;4168792;28;20578;-45
2021/05/26 00:27:40;;;;;;;4.40;1.42;;;;;;;18.19;38.52;101083.66;4174781;28;20029;-43
2021/05/26 00:29:42;;;;;;;4.95;1.50;;;;;;;17.96;38.82;101084.88;4175192;28;20382;-45
2021/05/26 00:31:42;;;;;;;4.53;1.30;;;;;;;18.03;38.88;101087.41;4174343;28;20032;-43
2021/05/26 00:33:42;;;;;;;5.35;1.88;;;;;;;17.88;38.80;101085.41;4175224;28;20045;-43
2021/05/26 00:35:43;;;;;;;4.43;1.67;;;;;;;17.99;38.79;101089.91;4173926;28;20033;-45
2021/05/26 00:37:43;;;;;;;2.95;1.45;;;;;;;18.11;38.80;101087.75;4176723;28;20037;-44
2021/05/26 00:39:44;;;;;;;5.15;1.75;;;;;;;18.18;38.57;101088.34;4173200;28;20131;-43
2021/05/26 00:41:44;;;;;;;3.92;1.55;;;;;;;18.06;38.64;101084.97;4169759;28;20403;-45
2021/05/26 00:43:45;;;;;;;4.60;1.73;;;;;;;18.16;38.61;101082.22;4174853;28;20036;-44
2021/05/26 00:45:46;;;;;;;5.35;1.92;;;;;;;18.14;38.65;101075.31;4171869;28;20033;-46
2021/05/26 00:47:50;;;;;;;9.40;1.63;;;;;;;18.27;38.17;101071.22;4176779;28;20560;-44
2021/05/26 00:49:51;;;;;;;3.40;1.63;;;;;;;18.18;38.29;101077.28;4175183;28;20409;-44
2021/05/26 00:51:51;;;;;;;5.50;1.27;;;;;;;18.29;37.98;101067.09;4171826;28;20036;-44
2021/05/26 00:53:52;;;;;;;3.40;1.48;;;;;;;18.27;38.21;101072.03;4173061;28;20036;-45
2021/05/26 00:55:52;;;;;;;4.43;1.45;;;;;;;18.19;38.27;101055.94;4173218;28;20426;-44
2021/05/26 00:57:53;;;;;;;3.45;1.50;;;;;;;;;;4172600;28;20032;-45
2021/05/26 00:59:54;;;;;;;4.75;1.58;;;;;;;18.28;38.14;101059.88;4174780;28;20104;-44
2021/05/26 01:01:54;;;;;;;3.60;1.60;;;;;;;18.30;38.21;101073.44;4172083;28;20041;-46
2021/05/26 01:03:56;;;;;;;2.67;1.42;;;;;;;18.28;38.34;101065.41;4173091;28;20418;-46
2021/05/26 01:05:56;;;;;;;5.00;1.80;;;;;;;18.32;38.37;101063.81;4172491;28;20036;-46
2021/05/26 01:07:57;;;;;;;2.78;1.27;;;;;;;;;;4171798;28;20430;-49
2021/05/26 01:09:58;;;;;;;3.70;1.77;;;;;;;18.32;38.38;101065.72;4176088;28;20061;-47
2021/05/26 01:11:58;;;;;;;4.22;1.63;;;;;;;18.30;37.55;101059.59;4172277;28;20529;-45
2021/05/26 01:13:59;;;;;;;4.25;1.45;;;;;;;18.27;38.22;101057.38;4172152;28;20032;-49
2021/05/26 01:15:59;;;;;;;6.65;1.83;;;;;;;18.29;38.34;101056.00;4173990;28;20029;-46
2021/05/26 01:18:22;;;;;;;6.38;1.45;;;;;;;18.34;38.10;101046.91;4172784;28;20498;-46
2021/05/26 01:20:28;;;;;;;3.08;1.70;;;;;;;18.35;37.93;101043.00;4172955;28;20522;-44
2021/05/26 01:22:29;;;;;;;3.47;1.40;;;;;;;18.31;38.18;101045.50;4172591;28;20053;-44
2021/05/26 01:24:29;;;;;;;6.15;2.13;;;;;;;18.13;38.62;101045.94;4172912;28;20020;-43
2021/05/26 01:26:29;;;;;;;4.28;1.80;;;;;;;18.19;38.52;101042.09;4172126;28;20545;-45
2021/05/26 01:28:32;;;;;;;3.08;1.70;;;;;;;18.26;38.04;101044.59;4168153;28;20032;-44
2021/05/26 01:30:32;;;;;;;4.68;1.85;;;;;;;18.24;38.22;101042.09;4175290;28;20561;-45
2021/05/26 01:32:45;;;;;;;5.45;1.70;;;;;;;17.91;38.87;101033.06;4175980;28;20032;-44
2021/05/26 01:34:45;;;;;;;6.13;1.73;;;;;;;18.12;38.51;101044.25;4170512;28;20037;-43
2021/05/26 01:36:46;;;;;;;3.08;1.63;;;;;;;17.85;39.08;101036.09;4175400;28;20045;-43
2021/05/26 01:38:47;;;;;;;5.90;2.08;;;;;;;17.87;39.13;101029.16;4170956;28;20494;-45
2021/05/26 01:40:48;;;;;;;6.55;1.90;;;;;;;18.04;38.70;101031.75;4169515;28;20031;-44
2021/05/26 01:42:49;;;;;;;4.43;1.67;;;;;;;18.12;38.67;101028.50;4174118;28;20119;-43
2021/05/26 01:44:49;;;;;;;4.97;2.00;;;;;;;17.89;38.89;101034.44;4171224;28;20060;-45
2021/05/26 01:46:49;;;;;;;5.40;2.10;;;;;;;18.08;38.58;101035.66;4170956;28;20536;-47
2021/05/26 01:48:51;;;;;;;5.95;1.70;;;;;;;18.08;38.68;101020.97;4172707;28;20039;-44
2021/05/26 01:50:51;;;;;;;5.20;1.77;;;;;;;17.65;39.27;101007.16;4172599;28;20033;-45
2021/05/26 01:53:00;;;;;;;3.47;2.00;;;;;;;17.86;39.10;101018.34;4170523;28;20033;-44
2021/05/26 01:55:01;;;;;;;5.63;2.05;;;;;;;17.88;38.80;101007.88;4172564;28;20044;-43
2021/05/26 01:57:01;;;;;;;5.70;2.05;;;;;;;18.09;38.50;101017.09;4170645;28;20138;-42
2021/05/26 01:59:02;;;;;;;6.50;2.25;;;;;;;17.66;39.57;101008.84;4172178;28;20033;-43
2021/05/26 02:01:03;;;;;;;6.25;1.50;;;;;;;17.66;39.53;100996.91;4172044;28;20025;-43
2021/05/26 02:03:03;;;;;;;6.15;1.88;;;;;;;17.52;39.56;101004.84;4173787;28;20032;-43
2021/05/26 02:05:07;;;;;;;4.53;2.15;;;;;;;17.33;40.03;101001.63;4171594;28;20736;-42
2021/05/26 02:07:11;;;;;;;4.57;1.90;;;;;;;17.41;39.72;101004.75;4168433;28;20577;-42
2021/05/26 02:09:11;;;;;;;4.35;2.15;;;;;;;17.46;39.56;101003.97;4156317;28;20110;-45
2021/05/26 02:13:32;;;;;;;2.42;1.30;;;;;;;17.42;39.95;101002.81;4173337;28;20090;-43
2021/05/26 02:15:32;;;;;;;4.28;1.70;;;;;;;17.74;38.99;100993.66;4171363;28;20029;-43
2021/05/26 02:17:33;;;;;;;3.45;1.88;;;;;;;17.64;39.32;100991.66;4170251;28;20044;-44
2021/05/26 02:19:34;;;;;;;6.15;2.38;;;;;;;17.48;39.39;100978.78;4173211;28;20029;-45
2021/05/26 02:21:34;;;;;;;8.43;2.20;;;;;;;17.76;39.04;100985.91;4170403;28;20033;-44
2021/05/26 02:23:35;;;;;;;3.30;1.70;;;;;;;17.89;38.50;100973.50;4171806;28;20035;-43
2021/05/26 02:25:35;;;;;;;4.57;1.90;;;;;;;17.98;38.20;100980.19;4173428;28;20403;-45
2021/05/26 02:27:35;;;;;;;4.05;1.85;;;;;;;17.99;38.35;100993.78;4170723;28;20044;-42
2021/05/26 02:29:37;;;;;;;6.50;2.17;;;;;;;17.89;38.54;100995.66;4172262;28;20033;-44
2021/05/26 02:31:37;;;;;;;2.90;1.55;;;;;;;17.97;38.36;100993.22;4172954;28;20384;-44
2021/05/26 02:33:38;;;;;;;5.13;1.95;;;;;;;17.90;38.60;100989.84;4169043;28;20048;-42
2021/05/26 02:35:38;;;;;;;4.43;1.73;;;;;;;17.86;38.72;100994.28;4173277;28;20033;-42
2021/05/26 02:37:39;;;;;;;2.47;1.50;;;;;;;17.90;38.63;100989.03;4170618;28;20045;-43
2021/05/26 02:39:40;;;;;;;3.67;1.58;;;;;;;17.90;38.53;100991.81;4171535;28;20039;-44
2021/05/26 02:41:40;;;;;;;5.78;1.60;;;;;;;17.58;38.80;100984.41;4174294;28;20620;-44
2021/05/26 02:43:41;;;;;;;6.03;1.80;;;;;;;17.61;39.09;100981.09;4171748;28;20376;-44
2021/05/26 02:45:41;;;;;;;4.45;1.90;;;;;;;17.60;39.29;100991.34;4172951;28;20091;-43
2021/05/26 02:47:42;;;;;;;5.45;1.92;;;;;;;17.82;38.52;100991.19;4173441;28;20029;-45
2021/05/26 02:49:42;;;;;;;4.90;1.88;;;;;;;17.78;38.58;100994.78;4170141;28;20029;-44
2021/05/26 02:51:43;;;;;;;4.15;1.63;;;;;;;17.72;38.95;100987.53;4175467;28;20029;-42
2021/05/26 02:53:43;;;;;;;2.72;1.55;;;;;;;17.71;38.97;100994.19;4172961;28;20102;-43
2021/05/26 02:55:44;;;;;;;3.88;1.70;;;;;;;17.81;38.82;100986.78;4173509;28;20846;-44
2021/05/26 02:57:44;;;;;;;2.60;1.30;;;;;;;17.84;38.48;100995.66;4172756;28;20095;-43
2021/05/26 02:59:45;;;;;;;5.05;2.10;;;;;;;17.85;38.59;100992.59;4175003;28;20449;-46
2021/05/26 03:01:45;;;;;;;4.00;1.65;;;;;;;17.71;38.74;100985.88;4172477;28;20033;-47
2021/05/26 03:03:46;;;;;;;3.10;1.38;;;;;;;17.76;38.59;100989.50;4170880;28;20033;-43
2021/05/26 03:05:46;;;;;;;3.45;1.40;;;;;;;17.40;39.35;100996.72;4172261;28;20151;-44
2021/05/26 03:07:47;;;;;;;4.88;1.70;;;;;;;17.53;39.30;100996.28;4170501;28;20025;-47
2021/05/26 03:09:47;;;;;;;3.35;1.35;;;;;;;17.77;38.87;100993.13;4168955;28;20411;-45
2021/05/26 03:11:48;;;;;;;3.90;1.27;;;;;;;17.62;39.14;100989.13;4175756;28;20021;-44
2021/05/26 03:13:48;;;;;;;5.07;1.80;;;;;;;17.42;39.03;100959.38;4171457;28;20041;-45
2021/05/26 03:15:49;;;;;;;2.83;1.42;;;;;;;17.76;38.64;100988.69;4169127;28;20040;-44
2021/05/26 03:17:49;;;;;;;3.88;1.95;;;;;;;17.58;39.03;100987.16;4171637;28;20060;-45
2021/05/26 03:19:50;;;;;;;5.05;1.50;;;;;;;17.56;39.10;100979.13;4174881;28;20434;-44
2021/05/26 03:21:50;;;;;;;5.40;1.35;;;;;;;17.50;39.16;100982.97;4173492;28;20090;-45
2021/05/26 03:23:51;;;;;;;2.65;1.50;;;;;;;17.57;38.99;100980.00;4175429;28;20203;-49
2021/05/26 03:25:51;;;;;;;3.28;1.30;;;;;;;17.61;39.27;100986.63;4174509;28;20492;-44
2021/05/26 03:27:51;;;;;;;2.90;1.63;;;;;;;17.75;38.77;100981.47;4178309;28;20033;-46
2021/05/26 03:29:52;;;;;;;3.42;1.65;;;;;;;17.81;38.57;100981.25;4173776;28;20040;-45
2021/05/26 03:31:52;;;;;;;3.65;2.13;;;;;;;17.74;39.05;100979.81;4173658;28;20395;-47
2021/05/26 03:33:53;;;;;;;3.60;1.52;;;;;;;17.75;38.72;100971.25;4174770;28;20442;-49
2021/05/26 03:35:53;;;;;;;3.45;1.52;;;;;;;17.80;38.78;100987.88;4174423;28;20037;-46
2021/05/26 03:37:54;;;;;;;3.60;1.83;;;;;;;17.69;39.02;100985.31;4172007;28;20076;-47
2021/05/26 03:39:55;;;;;;;3.75;1.92;;;;;;;17.58;39.13;100984.41;4173992;28;20076;-45
2021/05/26 03:41:56;;;;;;;4.05;2.15;;;;;;;17.71;38.90;100983.94;4171141;28;20511;-46
2021/05/26 03:43:56;;;;;;;2.53;1.20;;;;;;;17.54;39.33;100977.75;4177552;28;20040;-45
2021/05/26 03:45:58;;;;;;;3.20;1.33;;;;;;;17.41;39.41;100977.09;4175240;28;20033;-47
2021/05/26 03:47:59;;;;;;;4.05;1.33;;;;;;;17.43;39.38;100972.13;4171960;28;20030;-48
2021/05/26 03:49:59;;;;;;;2.75;1.30;;;;;;;17.28;39.51;100972.00;4174043;28;20029;-45
2021/05/26 03:52:00;;;;;;;3.40;1.00;;;;;;;17.37;39.38;100983.41;4173417;28;20025;-45
2021/05/26 03:54:00;;;;;;;3.90;1.73;;;;;;;17.33;39.53;100977.56;4176510;28;20076;-45
2021/05/26 03:56:01;;;;;;;2.42;1.42;;;;;;;17.17;39.97;100984.09;4175161;28;20029;-45
2021/05/26 03:58:02;;;;;;;3.00;1.20;;;;;;;17.33;39.53;100976.75;4173210;28;20037;-44
2021/05/26 04:00:08;;;;;;;4.13;1.02;;;;;;;17.22;40.02;100973.88;4173917;28;20036;-45
2021/05/26 04:02:09;;;;;;;2.42;1.20;;;;;;;17.12;40.25;100971.06;4176581;28;20029;-43
2021/05/26 04:04:09;;;;;;;4.93;1.40;;;;;;;17.31;39.90;100974.25;4174032;28;20044;-43
2021/05/26 04:06:10;;;;;;;2.58;1.15;;;;;;;17.15;40.16;100964.13;4174702;28;20021;-44
2021/05/26 04:08:12;;;;;;;4.60;1.83;;;;;;;17.06;40.02;100972.13;4173176;28;20040;-44
2021/05/26 04:10:12;;;;;;;6.00;1.20;;;;;;;17.10;40.37;100970.47;4175306;28;20048;-44
2021/05/26 04:12:13;;;;;;;1.70;1.02;;;;;;;17.34;39.69;100965.41;4173439;28;20036;-44
2021/05/26 04:14:14;;;;;;;3.13;1.00;;;;;;;17.32;40.03;100969.53;4172386;28;20064;-43
2021/05/26 04:16:14;;;;;;;2.60;1.10;;;;;;;17.22;40.11;100964.75;4174189;28;20082;-44
2021/05/26 04:18:14;;;;;;;4.15;1.30;;;;;;;17.16;40.14;100969.41;4173594;28;20060;-44
2021/05/26 04:20:15;;;;;;;3.90;1.42;;;;;;;17.28;40.12;100964.53;4173127;28;20040;-43
2021/05/26 04:22:18;;;;;;;3.80;1.30;;;;;;;17.25;40.03;100970.59;4171428;28;20061;-44
2021/05/26 04:24:19;;;;;;;2.88;1.52;;;;;;;17.24;40.31;100968.94;4176104;28;20041;-45
2021/05/26 04:26:19;;;;;;;4.40;1.40;;;;;;;17.22;40.41;100967.53;4174590;28;20424;-44
2021/05/26 04:28:21;;;;;;;5.45;1.50;;;;;;;17.51;39.73;100962.50;4171502;28;20029;-43
2021/05/26 04:30:22;;;;;;;2.17;1.17;;;;;;;17.39;40.00;100964.59;4174203;28;20044;-45
2021/05/26 04:32:22;;;;;;;2.70;1.40;;;;;;;17.34;40.19;100961.81;4172960;28;20427;-43
2021/05/26 04:34:24;;;;;;;4.38;1.80;;;;;;;17.36;40.18;100960.44;4174594;28;20040;-43
2021/05/26 04:36:24;;;;;;;3.35;1.60;;;;;;;17.43;40.04;100961.03;4174065;28;20141;-44
2021/05/26 04:38:25;;;;;;;4.35;1.55;;;;;;;17.38;40.29;100960.16;4171197;28;20040;-42
2021/05/26 04:40:26;;;;;;;1.67;1.20;;;;;;;17.47;40.22;100961.34;4175446;28;20033;-43
2021/05/26 04:42:27;;;;;;;4.32;1.63;;;;;;;17.31;40.44;100948.50;4172405;28;20037;-43
2021/05/26 04:44:27;;;;;;;4.65;1.55;;;;;;;17.46;40.32;100954.16;4173603;28;20035;-43
2021/05/26 04:46:28;;;;;;;2.78;1.27;;;;;;;17.15;40.38;100920.75;4173607;28;20041;-43
2021/05/26 04:48:28;;;;;;;3.22;1.48;;;;;;;17.64;39.83;100958.44;4173690;28;20580;-42
2021/05/26 04:50:30;;;;;;;4.38;1.38;;;;;;;17.54;39.97;100959.22;4172713;28;20770;-43
2021/05/26 04:52:31;;;;;;;3.95;1.20;;;;;;;17.52;39.86;100946.72;4173096;28;20022;-42
2021/05/26 04:54:31;;;;;;;2.83;1.10;;;;;;;17.48;40.23;100951.13;4157709;28;20040;-43
2021/05/26 04:56:32;;;;;;;2.50;1.60;;;;;;;17.42;40.25;100948.28;4172845;28;20033;-43
2021/05/26 04:58:32;;;;;;;2.47;1.20;;;;;;;17.64;39.72;100950.97;4171198;28;20385;-42
2021/05/26 05:00:34;;;;;;;4.95;1.63;;;;;;;17.69;39.51;100947.41;4170826;28;20395;-45
2021/05/26 05:02:34;;;;;;;3.25;1.00;;;;;;;17.51;40.25;100945.91;4173905;28;20063;-43
2021/05/26 05:04:35;;;;;;;3.40;1.80;;;;;;;17.52;39.71;100936.50;4173028;28;20037;-43
2021/05/26 05:06:35;;;;;;;3.50;1.10;;;;;;;17.49;40.26;100944.47;4174909;28;20406;-44
2021/05/26 05:08:37;;;;;;;3.55;1.65;;;;;;;17.72;39.73;100943.25;4172455;28;20040;-42
2021/05/26 05:10:38;;;;;;;2.83;1.20;;;;;;;17.48;40.04;100927.03;4146639;28;20095;-42
2021/05/26 05:12:38;;;;;;;3.28;1.38;;;;;;;17.51;40.05;100939.53;4174179;28;20036;-43
2021/05/26 05:14:39;;;;;;;2.10;1.20;;;;;;;17.82;39.45;100940.53;4172675;28;20410;-45
2021/05/26 05:16:39;;;;;;;3.03;1.48;;;;;;;17.73;39.85;100937.44;4173448;28;20823;-46
2021/05/26 05:18:40;;;;;;;4.00;1.30;;;;;;;17.67;39.97;100938.50;4174059;28;20029;-45
2021/05/26 05:20:40;;;;;;;3.08;1.10;;;;;;;17.61;39.88;100939.59;4173812;28;20087;-46
2021/05/26 05:22:41;;;;;;;2.60;1.63;;;;;;;17.64;40.07;100937.13;4173958;28;20036;-49
2021/05/26 05:24:41;;;;;;;2.08;1.10;;;;;;;17.50;40.08;100905.47;4173519;28;20356;-44
2021/05/26 05:26:42;;;;;;;3.13;1.65;;;;;;;17.66;39.92;100938.78;4172729;28;20033;-45
2021/05/26 05:28:43;;;;;;;2.83;1.60;;;;;;;17.68;40.10;100940.19;4174580;28;20037;-46
2021/05/26 05:30:43;;;;;;;2.17;1.40;;;;;;;17.56;40.08;100932.09;4169463;28;20483;-44
2021/05/26 05:32:43;;;;;;;5.25;1.77;;;;;;;17.71;40.10;100947.97;4173829;28;20033;-46
2021/05/26 05:34:44;;;;;;;2.40;1.30;;;;;;;17.66;40.11;100939.63;4173295;28;20041;-46
2021/05/26 05:36:44;;;;;;;4.10;1.30;;;;;;;17.66;40.04;100936.00;4170159;28;20088;-46
2021/05/26 05:38:45;;;;;;;2.50;1.23;;;;;;;17.74;39.67;100928.03;4174636;28;20045;-45
2021/05/26 05:40:47;;;;;;;4.32;1.20;;;;;;;17.69;40.03;100935.47;4171272;28;20029;-46
2021/05/26 05:42:48;;;;;;;3.47;1.48;;;;;;;17.74;40.11;100947.41;4170471;28;20049;-45
2021/05/26 05:44:48;;;;;;;2.25;1.05;;;;;;;17.78;40.02;100951.31;4173870;28;20044;-44
2021/05/26 05:46:48;;;;;;;2.55;1.65;;;;;;;17.86;39.72;100951.91;4171702;28;20390;-46
2021/05/26 05:48:49;;;;;;;3.75;1.08;;;;;;;17.80;40.00;100951.06;4170457;28;20032;-45
2021/05/26 05:50:49;;;;;;;2.75;1.30;;;;;;;17.90;39.74;100959.41;4172114;28;20562;-49
2021/05/26 05:52:50;;;;;;;4.18;1.05;;;;;;;17.92;39.68;100957.22;4174116;28;20029;-48
2021/05/26 05:54:50;;;;;;;4.55;1.95;;;;;;;17.78;39.89;100954.09;4175090;28;21455;-47
2021/05/26 05:56:50;;;;;;;5.95;1.40;;;;;;;17.81;40.01;100950.78;4171530;28;20036;-45
2021/05/26 05:58:51;;;;;;;7.95;1.65;;;;;;;17.86;40.42;100952.75;4170205;28;20478;-45
2021/05/26 06:00:51;;;;;;;5.28;1.55;;;;;;;17.86;40.62;100946.34;4175910;28;20033;-44
2021/05/26 06:02:52;;;;;;;3.08;1.17;;;;;;;17.90;40.57;100953.84;4172323;28;20053;-43
2021/05/26 06:04:52;;;;;;;10.55;1.60;;;;;;;17.94;40.78;100957.75;4171257;28;20045;-43
2021/05/26 06:06:52;;;;;;;5.55;1.63;;;;;;;17.93;40.39;100963.56;4171302;28;20116;-43
2021/05/26 06:08:53;;;;;;;3.13;1.20;;;;;;;17.84;40.64;100948.56;4171864;28;20056;-44
2021/05/26 06:10:54;;;;;;;3.78;1.50;;;;;;;17.94;40.64;100952.22;4174553;28;20033;-45
2021/05/26 06:12:56;;;;;;;3.53;1.35;;;;;;;17.90;40.52;100956.63;4171111;28;20035;-44
2021/05/26 06:14:56;;;;;;;5.13;1.38;;;;;;;17.91;40.78;100951.94;4170330;28;20033;-46
2021/05/26 06:16:57;;;;;;;4.57;1.38;;;;;;;17.97;40.47;100954.44;4174129;28;20032;-45
2021/05/26 06:18:57;;;;;;;4.28;1.83;;;;;;;17.89;40.55;100952.22;4172332;28;20040;-45
2021/05/26 06:20:58;;;;;;;2.85;1.42;;;;;;;18.06;40.52;100962.22;4169838;28;20455;-44
2021/05/26 06:22:58;;;;;;;3.80;1.20;;;;;;;17.98;40.73;100960.81;4172100;28;20044;-45
2021/05/26 06:24:59;;;;;;;5.75;1.40;;;;;;;18.00;40.42;100956.69;4170859;28;20490;-44
2021/05/26 06:26:59;;;;;;;4.35;1.48;;;;;;;18.00;40.61;100958.63;4169318;28;20021;-44
2021/05/26 06:29:04;;;;;;;2.15;1.20;;;;;;;18.09;40.33;100961.69;4170086;28;20487;-44
2021/05/26 06:31:04;;;;;;;3.45;1.35;;;;;;;18.06;40.44;100952.00;4169914;28;20037;-43
2021/05/26 06:33:05;;;;;;;4.18;1.63;;;;;;;18.00;40.58;100958.63;4172750;28;20025;-46
2021/05/26 06:35:06;;;;;;;3.00;1.33;;;;;;;18.02;40.65;100964.72;4172414;28;20040;-44
2021/05/26 06:37:06;;;;;;;2.80;1.48;;;;;;;17.84;40.26;100927.25;4173065;28;20067;-44
2021/05/26 06:39:07;;;;;;;3.78;1.42;;;;;;;18.01;40.44;100968.59;4172611;28;20039;-44
2021/05/26 06:41:08;;;;;;;2.22;1.30;;;;;;;17.95;40.61;100955.81;4169187;28;20404;-47
2021/05/26 06:43:08;;;;;;;2.92;1.00;;;;;;;18.03;40.71;100951.69;4172878;28;20506;-44
2021/05/26 06:45:10;;;;;;;3.33;1.13;;;;;;;18.11;40.40;100963.09;4171003;28;20104;-42
2021/05/26 06:47:10;;;;;;;2.67;1.02;;;;;;;18.01;40.38;100963.03;4171096;28;20037;-43
2021/05/26 06:49:11;;;;;;;3.42;1.40;;;;;;;18.00;40.71;100962.22;4172152;28;20195;-44
2021/05/26 06:51:12;;;;;;;4.75;1.60;;;;;;;18.09;40.37;100964.47;4171022;28;20503;-44
2021/05/26 06:53:12;;;;;;;4.13;1.92;;;;;;;18.12;40.36;100956.47;4170770;28;20029;-43
2021/05/26 06:55:13;;;;;;;7.40;1.50;;;;;;;18.02;40.83;100963.91;4170903;28;20033;-44
2021/05/26 06:57:13;;;;;;;4.85;1.75;;;;;;;17.98;40.59;100960.81;4169298;28;20040;-43
2021/05/26 06:59:14;;;;;;;7.72;1.55;;;;;;;17.91;40.77;100960.25;4168398;28;20028;-44
2021/05/26 07:01:15;;;;;;;5.55;1.70;;;;;;;18.03;40.99;100958.09;4166888;28;20033;-44
2021/05/26 07:03:15;;;;;;;8.73;1.73;;;;;;;18.12;40.46;100964.78;4169630;28;20416;-41
2021/05/26 07:05:15;;;;;;;4.10;1.40;;;;;;;18.21;40.42;100970.59;4174091;28;20044;-41
2021/05/26 07:07:16;;;;;;;2.97;1.45;;;;;;;18.14;40.82;100975.59;4169520;28;20029;-42
2021/05/26 07:09:16;;;;;;;16.17;1.17;;;;;;;18.18;41.16;100973.91;4151324;28;20037;-42
2021/05/26 07:11:17;;;;;;;5.35;1.42;;;;;;;18.16;40.86;100965.88;4172579;28;20038;-41
2021/05/26 07:13:17;;;;;;;2.15;1.00;;;;;;;18.18;40.78;100966.47;4171479;28;20117;-42
2021/05/26 07:15:19;;;;;;;1.80;0.93;;;;;;;18.29;40.73;100969.25;4168318;28;20160;-42
2021/05/26 07:17:19;;;;;;;4.07;1.10;;;;;;;18.25;40.58;100970.91;4171299;28;20103;-46
2021/05/26 07:19:19;;;;;;;2.38;0.75;;;;;;;18.25;40.63;100963.44;4170086;28;20060;-41
2021/05/26 07:21:20;;;;;;;3.35;0.70;;;;;;;18.35;40.49;100968.19;4171121;28;20102;-42
2021/05/26 07:23:21;;;;;;;3.10;1.15;;;;;;;18.32;40.57;100960.41;4169880;28;20037;-42
2021/05/26 07:25:21;;;;;;;4.35;1.00;;;;;;;18.37;40.82;100963.22;4169273;28;20037;-42
2021/05/26 07:27:22;;;;;;;3.53;1.13;;;;;;;18.42;40.54;100970.72;4169928;28;20041;-42
2021/05/26 07:29:23;;;;;;;8.95;1.20;;;;;;;18.41;40.93;100980.94;4169169;28;20036;-43
2021/05/26 07:31:23;;;;;;;4.55;0.70;;;;;;;18.41;40.54;100960.72;4171578;28;20130;-41
2021/05/26 07:33:23;;;;;;;2.17;0.70;;;;;;;18.38;40.74;100972.38;4170699;28;20048;-42
2021/05/26 07:35:24;;;;;;;2.55;0.98;;;;;;;18.43;40.44;100967.69;4169414;28;20403;-41
2021/05/26 07:37:24;;;;;;;4.60;0.93;;;;;;;18.40;40.63;100962.69;4169776;28;20073;-42
2021/05/26 07:39:28;;;;;;;3.17;0.90;;;;;;;18.51;40.62;100969.09;4170479;28;20037;-42
2021/05/26 07:41:28;;;;;;;2.20;0.90;;;;;;;18.47;40.51;100973.50;4170491;28;20540;-42
2021/05/26 07:43:31;;;;;;;3.45;1.00;;;;;;;18.43;40.86;100970.44;4167638;28;20124;-43
2021/05/26 07:45:31;;;;;;;2.92;1.08;;;;;;;18.42;40.83;100977.09;4169815;28;20505;-42
2021/05/26 07:47:32;;;;;;;1.70;0.90;;;;;;;18.44;40.58;100974.88;4169129;28;20037;-42
2021/05/26 07:49:32;;;;;;;2.55;0.80;;;;;;;18.51;40.85;100983.75;4170007;28;20156;-45
2021/05/26 07:51:35;;;;;;;5.28;0.98;;;;;;;18.50;40.28;100984.03;4170157;28;20419;-42
2021/05/26 07:53:35;;;;;;;4.63;0.95;;;;;;;;;;4170444;28;20045;-43
2021/05/26 07:55:36;;;;;;;4.82;1.00;;;;;;;18.57;40.62;100970.75;4171158;28;20143;-42
2021/05/26 07:57:36;;;;;;;2.47;0.80;;;;;;;18.60;40.81;100972.13;4169543;28;20029;-42
2021/05/26 07:59:36;;;;;;;2.80;0.90;;;;;;;18.58;40.86;100974.34;4169400;28;20041;-44
2021/05/26 08:01:37;;;;;;;2.17;0.80;;;;;;;18.65;40.72;100974.94;4169500;28;20517;-42
2021/05/26 08:03:37;;;;;;;1.90;0.63;;;;;;;18.66;40.72;100976.56;4169139;28;20034;-45
2021/05/26 08:05:38;;;;;;;1.13;0.80;;;;;;;18.67;40.79;100979.06;4176183;28;20039;-48
2021/05/26 08:07:38;;;;;;;4.00;0.93;;;;;;;18.65;40.73;100972.16;4173253;28;20633;-46
2021/05/26 08:09:39;;;;;;;2.63;0.85;;;;;;;18.65;40.73;100980.47;4171133;28;20040;-47
2021/05/26 08:11:40;;;;;;;3.95;0.90;;;;;;;18.64;40.68;100979.63;4175510;28;20102;-45
2021/05/26 08:13:41;;;;;;;1.50;0.82;;;;;;;18.63;40.53;100982.66;4175202;28;20044;-46
2021/05/26 08:15:41;;;;;;;2.22;0.93;;;;;;;18.63;40.68;100977.13;4167679;28;20029;-48
2021/05/26 08:17:43;;;;;;;1.40;0.80;;;;;;;18.60;40.34;100974.91;4172479;28;20037;-44
2021/05/26 08:19:43;;;;;;;5.03;0.73;;;;;;;18.53;40.57;100973.22;4172186;28;20038;-44
2021/05/26 08:21:43;;;;;;;2.60;0.65;;;;;;;18.47;40.34;100977.09;4171385;28;20565;-48
2021/05/26 08:23:44;;;;;;;1.60;0.88;;;;;;;18.51;40.12;100972.69;4172017;28;20331;-45
2021/05/26 08:25:45;;;;;;;1.45;0.80;;;;;;;18.56;40.03;100977.41;4171197;28;20119;-46
2021/05/26 08:27:45;;;;;;;1.13;0.82;;;;;;;18.63;39.64;100977.97;4173968;28;20353;-48
2021/05/26 08:29:46;;;;;;;3.30;0.80;;;;;;;18.50;39.97;100972.94;4171320;28;20033;-44
2021/05/26 08:31:46;;;;;;;1.48;0.65;;;;;;;18.56;40.06;100971.03;4152547;28;20037;-47
2021/05/26 08:33:47;;;;;;;2.15;0.77;;;;;;;18.63;39.74;100980.75;4173040;28;20687;-50
2021/05/26 08:35:48;;;;;;;2.13;0.60;;;;;;;18.62;39.95;100975.47;4172932;28;20048;-49
2021/05/26 08:37:49;;;;;;;1.98;0.63;;;;;;;18.66;39.73;100973.81;4171921;28;20052;-45
2021/05/26 08:39:49;;;;;;;2.63;0.70;;;;;;;18.58;39.79;100975.19;4169959;28;20044;-48
2021/05/26 08:41:53;;;;;;;1.83;0.90;;;;;;;18.65;39.57;100974.94;4172973;28;20479;-47
2021/05/26 08:43:54;;;;;;;3.22;0.85;;;;;;;18.43;39.60;100931.66;4173252;28;20517;-47
2021/05/26 08:45:54;;;;;;;2.03;0.60;;;;;;;18.62;39.43;100959.66;4172253;28;20033;-45
2021/05/26 08:47:59;;;;;;;1.38;0.60;;;;;;;18.71;39.17;100969.13;4173211;28;20029;-46
2021/05/26 08:49:59;;;;;;;1.30;0.60;;;;;;;18.72;39.09;100964.38;4182448;28;20539;-46
2021/05/26 08:52:01;;;;;;;2.83;0.75;;;;;;;18.80;39.31;100966.63;4173583;28;20436;-48
2021/05/26 08:54:03;;;;;;;0.73;0.45;;;;;;;18.79;39.32;100964.13;4173584;28;20128;-40
2021/05/26 08:56:04;;;;;;;3.47;0.60;;;;;;;18.91;39.07;100972.16;4180714;28;20037;-42
2021/05/26 08:58:04;;;;;;;2.58;0.60;;;;;;;18.93;39.32;100973.56;4173409;28;20037;-43
2021/05/26 09:00:07;;;;;;;1.92;0.52;;;;;;;18.97;39.41;100968.28;4174681;28;20436;-43
2021/05/26 09:02:11;;;;;;;0.77;0.50;;;;;;;18.97;39.15;100959.97;4174388;28;20087;-43
2021/05/26 09:04:34;;;;;;;1.30;0.68;;;;;;;19.10;39.41;100970.56;4170163;28;20102;-43
2021/05/26 09:06:42;;;;;;;2.85;0.60;;;;;;;19.11;39.77;100966.69;4163576;28;20021;-43
2021/05/26 09:08:46;;;;;;;2.83;0.50;;;;;;;19.13;39.69;100966.41;4174320;28;20044;-48
2021/05/26 09:11:03;;;;;;;1.63;0.88;;;;;;;19.19;39.46;100970.84;4173623;28;20123;-48
2021/05/26 09:13:03;;;;;;;2.72;0.63;;;;;;;19.22;39.48;100967.50;4177004;28;20475;-42
2021/05/26 09:15:16;;;;;;;5.00;0.50;;;;;;;19.24;39.57;100963.31;4172270;28;20021;-44
2021/05/26 09:17:16;;;;;;;1.75;0.60;;;;;;;19.27;39.44;100964.72;4174803;28;20048;-46
2021/05/26 09:19:16;;;;;;;3.92;0.20;;;;;;;19.33;39.34;100963.59;4174009;28;20025;-43
2021/05/26 09:21:41;;;;;;;2.90;0.77;;;;;;;19.03;39.47;100912.56;4170191;28;20091;-44
2021/05/26 09:23:41;;;;;;;5.13;1.20;;;;;;;19.37;39.54;100961.94;4174623;28;20383;-44
2021/05/26 09:25:45;;;;;;;1.33;0.45;;;;;;;19.44;39.34;100961.66;4170524;28;20021;-45
2021/05/26 09:27:45;;;;;;;2.17;0.40;;;;;;;19.40;39.55;100961.38;4160485;28;20129;-44